sensor_id;sensor_type;location;lat;lon;timestamp;P1;durP1;ratioP1;P2;durP2;ratioP2
25237;SDS011;13185;50.872;5.306;2023-07-08T00:01:13;5.00;;;3.03;;
25237;SDS011;13185;50.872;5.306;2023-07-08T00:03:40;3.95;;;3.20;;
25237;SDS011;13185;50.872;5.306;2023-07-08T00:06:07;6.25;;;3.33;;
25237;SDS011;13185;50.872;5.306;2023-07-08T00:08:38;6.85;;;2.90;;
25237;SDS011;13185;50.872;5.306;2023-07-08T00:11:08;6.97;;;3.08;;
25237;SDS011;13185;50.872;5.306;2023-07-08T00:13:38;6.22;;;3.22;;
25237;SDS011;13185;50.872;5.306;2023-07-08T00:16:06;4.40;;;3.03;;
25237;SDS011;13185;50.872;5.306;2023-07-08T00:18:37;7.35;;;3.20;;
25237;SDS011;13185;50.872;5.306;2023-07-08T00:21:04;7.82;;;3.50;;
25237;SDS011;13185;50.872;5.306;2023-07-08T00:23:44;4.00;;;3.22;;
25237;SDS011;13185;50.872;5.306;2023-07-08T00:26:13;4.30;;;3.10;;
25237;SDS011;13185;50.872;5.306;2023-07-08T00:29:01;4.93;;;3.03;;
25237;SDS011;13185;50.872;5.306;2023-07-08T00:31:26;6.30;;;3.10;;
25237;SDS011;13185;50.872;5.306;2023-07-08T00:33:53;5.57;;;3.10;;
25237;SDS011;13185;50.872;5.306;2023-07-08T00:36:23;5.30;;;3.08;;
25237;SDS011;13185;50.872;5.306;2023-07-08T00:38:51;8.73;;;3.40;;
25237;SDS011;13185;50.872;5.306;2023-07-08T00:41:50;6.03;;;3.40;;
25237;SDS011;13185;50.872;5.306;2023-07-08T00:46:57;3.40;;;2.90;;
25237;SDS011;13185;50.872;5.306;2023-07-08T00:49:31;5.05;;;3.13;;
25237;SDS011;13185;50.872;5.306;2023-07-08T00:52:16;4.95;;;2.90;;
25237;SDS011;13185;50.872;5.306;2023-07-08T00:54:45;5.60;;;3.47;;
25237;SDS011;13185;50.872;5.306;2023-07-08T00:57:10;4.43;;;3.17;;
25237;SDS011;13185;50.872;5.306;2023-07-08T00:59:38;8.50;;;3.80;;
25237;SDS011;13185;50.872;5.306;2023-07-08T01:02:10;6.75;;;3.45;;
25237;SDS011;13185;50.872;5.306;2023-07-08T01:04:39;4.32;;;3.30;;
25237;SDS011;13185;50.872;5.306;2023-07-08T01:07:19;4.53;;;3.20;;
25237;SDS011;13185;50.872;5.306;2023-07-08T01:09:54;5.93;;;3.08;;
25237;SDS011;13185;50.872;5.306;2023-07-08T01:12:26;4.63;;;2.97;;
25237;SDS011;13185;50.872;5.306;2023-07-08T01:14:55;5.72;;;3.30;;
25237;SDS011;13185;50.872;5.306;2023-07-08T01:17:22;4.75;;;3.53;;
25237;SDS011;13185;50.872;5.306;2023-07-08T01:19:47;4.20;;;3.45;;
25237;SDS011;13185;50.872;5.306;2023-07-08T01:22:14;4.63;;;3.38;;
25237;SDS011;13185;50.872;5.306;2023-07-08T01:24:41;5.65;;;3.75;;
25237;SDS011;13185;50.872;5.306;2023-07-08T01:27:10;5.72;;;3.25;;
25237;SDS011;13185;50.872;5.306;2023-07-08T01:29:38;4.25;;;3.08;;
25237;SDS011;13185;50.872;5.306;2023-07-08T01:32:04;5.10;;;3.63;;
25237;SDS011;13185;50.872;5.306;2023-07-08T01:34:33;4.50;;;3.20;;
25237;SDS011;13185;50.872;5.306;2023-07-08T01:37:01;5.03;;;3.55;;
25237;SDS011;13185;50.872;5.306;2023-07-08T01:39:30;7.43;;;4.55;;
25237;SDS011;13185;50.872;5.306;2023-07-08T01:41:57;6.28;;;3.90;;
25237;SDS011;13185;50.872;5.306;2023-07-08T01:44:28;4.40;;;3.30;;
25237;SDS011;13185;50.872;5.306;2023-07-08T01:47:08;6.40;;;4.20;;
25237;SDS011;13185;50.872;5.306;2023-07-08T01:49:41;5.80;;;3.50;;
25237;SDS011;13185;50.872;5.306;2023-07-08T01:52:08;10.13;;;3.85;;
25237;SDS011;13185;50.872;5.306;2023-07-08T01:54:35;5.18;;;3.30;;
25237;SDS011;13185;50.872;5.306;2023-07-08T01:57:01;5.53;;;3.33;;
25237;SDS011;13185;50.872;5.306;2023-07-08T01:59:27;6.50;;;3.95;;
25237;SDS011;13185;50.872;5.306;2023-07-08T02:01:54;4.75;;;3.45;;
25237;SDS011;13185;50.872;5.306;2023-07-08T02:04:23;11.50;;;3.90;;
25237;SDS011;13185;50.872;5.306;2023-07-08T02:06:54;6.78;;;3.47;;
25237;SDS011;13185;50.872;5.306;2023-07-08T02:09:20;3.58;;;3.25;;
25237;SDS011;13185;50.872;5.306;2023-07-08T02:11:47;4.68;;;3.42;;
25237;SDS011;13185;50.872;5.306;2023-07-08T02:14:12;6.95;;;3.33;;
25237;SDS011;13185;50.872;5.306;2023-07-08T02:16:38;4.55;;;3.47;;
25237;SDS011;13185;50.872;5.306;2023-07-08T02:19:03;6.15;;;3.95;;
25237;SDS011;13185;50.872;5.306;2023-07-08T02:21:30;4.80;;;3.40;;
25237;SDS011;13185;50.872;5.306;2023-07-08T02:23:56;5.22;;;3.40;;
25237;SDS011;13185;50.872;5.306;2023-07-08T02:26:22;6.18;;;3.22;;
25237;SDS011;13185;50.872;5.306;2023-07-08T02:28:48;4.22;;;3.50;;
25237;SDS011;13185;50.872;5.306;2023-07-08T02:31:14;4.93;;;3.65;;
25237;SDS011;13185;50.872;5.306;2023-07-08T02:33:40;6.07;;;3.75;;
25237;SDS011;13185;50.872;5.306;2023-07-08T02:36:05;6.10;;;3.50;;
25237;SDS011;13185;50.872;5.306;2023-07-08T02:38:31;5.60;;;3.47;;
25237;SDS011;13185;50.872;5.306;2023-07-08T02:40:57;6.07;;;4.05;;
25237;SDS011;13185;50.872;5.306;2023-07-08T02:43:23;6.22;;;3.67;;
25237;SDS011;13185;50.872;5.306;2023-07-08T02:45:49;5.63;;;3.22;;
25237;SDS011;13185;50.872;5.306;2023-07-08T02:48:15;5.30;;;3.63;;
25237;SDS011;13185;50.872;5.306;2023-07-08T02:50:42;6.53;;;3.70;;
25237;SDS011;13185;50.872;5.306;2023-07-08T02:53:08;3.83;;;3.40;;
25237;SDS011;13185;50.872;5.306;2023-07-08T02:55:33;4.78;;;3.15;;
25237;SDS011;13185;50.872;5.306;2023-07-08T02:57:59;5.35;;;3.97;;
25237;SDS011;13185;50.872;5.306;2023-07-08T03:00:24;5.70;;;4.03;;
25237;SDS011;13185;50.872;5.306;2023-07-08T03:02:51;6.53;;;4.03;;
25237;SDS011;13185;50.872;5.306;2023-07-08T03:05:16;8.18;;;4.15;;
25237;SDS011;13185;50.872;5.306;2023-07-08T03:07:42;6.40;;;4.07;;
25237;SDS011;13185;50.872;5.306;2023-07-08T03:10:07;5.68;;;3.67;;
25237;SDS011;13185;50.872;5.306;2023-07-08T03:12:33;7.10;;;3.58;;
25237;SDS011;13185;50.872;5.306;2023-07-08T03:14:59;5.28;;;3.80;;
25237;SDS011;13185;50.872;5.306;2023-07-08T03:17:25;4.47;;;3.72;;
25237;SDS011;13185;50.872;5.306;2023-07-08T03:19:50;6.40;;;4.18;;
25237;SDS011;13185;50.872;5.306;2023-07-08T03:22:16;6.30;;;4.10;;
25237;SDS011;13185;50.872;5.306;2023-07-08T03:24:41;5.60;;;4.07;;
25237;SDS011;13185;50.872;5.306;2023-07-08T03:27:13;5.85;;;3.90;;
25237;SDS011;13185;50.872;5.306;2023-07-08T03:29:40;7.47;;;4.78;;
25237;SDS011;13185;50.872;5.306;2023-07-08T03:32:07;7.65;;;4.45;;
25237;SDS011;13185;50.872;5.306;2023-07-08T03:34:37;4.93;;;3.90;;
25237;SDS011;13185;50.872;5.306;2023-07-08T03:37:03;7.32;;;4.47;;
25237;SDS011;13185;50.872;5.306;2023-07-08T03:39:29;7.57;;;4.55;;
25237;SDS011;13185;50.872;5.306;2023-07-08T03:41:57;6.45;;;4.20;;
25237;SDS011;13185;50.872;5.306;2023-07-08T03:44:23;6.53;;;4.20;;
25237;SDS011;13185;50.872;5.306;2023-07-08T03:46:49;5.20;;;3.88;;
25237;SDS011;13185;50.872;5.306;2023-07-08T03:49:17;7.10;;;3.90;;
25237;SDS011;13185;50.872;5.306;2023-07-08T03:51:49;6.50;;;4.35;;
25237;SDS011;13185;50.872;5.306;2023-07-08T03:54:17;5.57;;;4.05;;
25237;SDS011;13185;50.872;5.306;2023-07-08T03:56:45;5.70;;;4.07;;
25237;SDS011;13185;50.872;5.306;2023-07-08T03:59:11;7.30;;;4.63;;
25237;SDS011;13185;50.872;5.306;2023-07-08T04:01:37;5.22;;;4.07;;
25237;SDS011;13185;50.872;5.306;2023-07-08T04:04:08;7.65;;;3.88;;
25237;SDS011;13185;50.872;5.306;2023-07-08T04:06:37;9.02;;;3.95;;
25237;SDS011;13185;50.872;5.306;2023-07-08T04:09:03;5.82;;;3.78;;
25237;SDS011;13185;50.872;5.306;2023-07-08T04:11:29;4.45;;;3.63;;
25237;SDS011;13185;50.872;5.306;2023-07-08T04:13:54;5.38;;;3.60;;
25237;SDS011;13185;50.872;5.306;2023-07-08T04:16:21;4.55;;;3.55;;
25237;SDS011;13185;50.872;5.306;2023-07-08T04:18:50;6.07;;;4.18;;
25237;SDS011;13185;50.872;5.306;2023-07-08T04:21:18;5.50;;;3.85;;
25237;SDS011;13185;50.872;5.306;2023-07-08T04:23:44;5.07;;;3.88;;
25237;SDS011;13185;50.872;5.306;2023-07-08T04:26:10;5.22;;;3.90;;
25237;SDS011;13185;50.872;5.306;2023-07-08T04:28:35;5.35;;;3.72;;
25237;SDS011;13185;50.872;5.306;2023-07-08T04:31:02;7.85;;;3.67;;
25237;SDS011;13185;50.872;5.306;2023-07-08T04:33:29;4.68;;;3.75;;
25237;SDS011;13185;50.872;5.306;2023-07-08T04:35:54;5.68;;;4.35;;
25237;SDS011;13185;50.872;5.306;2023-07-08T04:38:21;7.68;;;4.25;;
25237;SDS011;13185;50.872;5.306;2023-07-08T04:40:50;6.32;;;3.78;;
25237;SDS011;13185;50.872;5.306;2023-07-08T04:43:17;8.98;;;4.13;;
25237;SDS011;13185;50.872;5.306;2023-07-08T04:45:44;5.22;;;4.00;;
25237;SDS011;13185;50.872;5.306;2023-07-08T04:48:15;5.55;;;3.78;;
25237;SDS011;13185;50.872;5.306;2023-07-08T04:50:44;6.10;;;3.78;;
25237;SDS011;13185;50.872;5.306;2023-07-08T04:55:50;7.32;;;3.85;;
25237;SDS011;13185;50.872;5.306;2023-07-08T04:58:19;6.10;;;4.00;;
25237;SDS011;13185;50.872;5.306;2023-07-08T05:00:45;6.38;;;4.40;;
25237;SDS011;13185;50.872;5.306;2023-07-08T05:03:11;4.88;;;4.03;;
25237;SDS011;13185;50.872;5.306;2023-07-08T05:05:36;6.18;;;4.22;;
25237;SDS011;13185;50.872;5.306;2023-07-08T05:08:02;7.85;;;4.03;;
25237;SDS011;13185;50.872;5.306;2023-07-08T05:10:28;6.32;;;3.42;;
25237;SDS011;13185;50.872;5.306;2023-07-08T05:12:53;6.45;;;4.28;;
25237;SDS011;13185;50.872;5.306;2023-07-08T05:15:19;5.20;;;3.65;;
25237;SDS011;13185;50.872;5.306;2023-07-08T05:17:44;6.55;;;3.95;;
25237;SDS011;13185;50.872;5.306;2023-07-08T05:20:13;6.38;;;4.20;;
25237;SDS011;13185;50.872;5.306;2023-07-08T05:22:39;5.88;;;4.22;;
25237;SDS011;13185;50.872;5.306;2023-07-08T05:25:06;5.28;;;4.13;;
25237;SDS011;13185;50.872;5.306;2023-07-08T05:27:32;7.60;;;4.82;;
25237;SDS011;13185;50.872;5.306;2023-07-08T05:30:01;6.35;;;4.45;;
25237;SDS011;13185;50.872;5.306;2023-07-08T05:32:27;5.68;;;3.83;;
25237;SDS011;13185;50.872;5.306;2023-07-08T05:34:53;6.53;;;4.43;;
25237;SDS011;13185;50.872;5.306;2023-07-08T05:37:19;6.03;;;5.00;;
25237;SDS011;13185;50.872;5.306;2023-07-08T05:39:49;6.68;;;4.60;;
25237;SDS011;13185;50.872;5.306;2023-07-08T05:42:14;6.25;;;4.45;;
25237;SDS011;13185;50.872;5.306;2023-07-08T05:44:40;6.30;;;4.25;;
25237;SDS011;13185;50.872;5.306;2023-07-08T05:47:06;8.30;;;4.97;;
25237;SDS011;13185;50.872;5.306;2023-07-08T05:49:31;5.43;;;4.47;;
25237;SDS011;13185;50.872;5.306;2023-07-08T05:51:57;5.03;;;4.13;;
25237;SDS011;13185;50.872;5.306;2023-07-08T05:54:22;9.27;;;5.63;;
25237;SDS011;13185;50.872;5.306;2023-07-08T05:56:48;5.82;;;4.30;;
25237;SDS011;13185;50.872;5.306;2023-07-08T05:59:13;6.45;;;4.20;;
25237;SDS011;13185;50.872;5.306;2023-07-08T06:01:39;6.15;;;4.30;;
25237;SDS011;13185;50.872;5.306;2023-07-08T06:04:04;6.00;;;4.13;;
25237;SDS011;13185;50.872;5.306;2023-07-08T06:06:30;5.40;;;4.18;;
25237;SDS011;13185;50.872;5.306;2023-07-08T06:08:55;5.75;;;3.63;;
25237;SDS011;13185;50.872;5.306;2023-07-08T06:11:21;6.75;;;4.55;;
25237;SDS011;13185;50.872;5.306;2023-07-08T06:13:50;4.72;;;3.50;;
25237;SDS011;13185;50.872;5.306;2023-07-08T06:16:15;4.05;;;3.13;;
25237;SDS011;13185;50.872;5.306;2023-07-08T06:18:42;7.63;;;3.80;;
25237;SDS011;13185;50.872;5.306;2023-07-08T06:21:07;7.35;;;5.82;;
25237;SDS011;13185;50.872;5.306;2023-07-08T06:23:33;11.00;;;8.52;;
25237;SDS011;13185;50.872;5.306;2023-07-08T06:25:58;10.50;;;8.05;;
25237;SDS011;13185;50.872;5.306;2023-07-08T06:28:29;14.68;;;11.18;;
25237;SDS011;13185;50.872;5.306;2023-07-08T06:30:55;14.50;;;10.90;;
25237;SDS011;13185;50.872;5.306;2023-07-08T06:33:20;13.95;;;10.85;;
25237;SDS011;13185;50.872;5.306;2023-07-08T06:35:47;13.80;;;10.80;;
25237;SDS011;13185;50.872;5.306;2023-07-08T06:38:14;14.25;;;11.48;;
25237;SDS011;13185;50.872;5.306;2023-07-08T06:40:41;15.27;;;11.52;;
25237;SDS011;13185;50.872;5.306;2023-07-08T06:43:08;13.52;;;9.68;;
25237;SDS011;13185;50.872;5.306;2023-07-08T06:45:44;12.52;;;8.45;;
25237;SDS011;13185;50.872;5.306;2023-07-08T06:48:10;11.73;;;8.02;;
25237;SDS011;13185;50.872;5.306;2023-07-08T06:50:35;10.38;;;7.85;;
25237;SDS011;13185;50.872;5.306;2023-07-08T06:53:04;8.85;;;6.82;;
25237;SDS011;13185;50.872;5.306;2023-07-08T06:55:33;8.50;;;6.63;;
25237;SDS011;13185;50.872;5.306;2023-07-08T06:57:58;7.15;;;5.85;;
25237;SDS011;13185;50.872;5.306;2023-07-08T07:00:24;8.65;;;5.80;;
25237;SDS011;13185;50.872;5.306;2023-07-08T07:02:50;9.63;;;6.03;;
25237;SDS011;13185;50.872;5.306;2023-07-08T07:05:15;8.13;;;5.90;;
25237;SDS011;13185;50.872;5.306;2023-07-08T07:07:41;7.88;;;5.57;;
25237;SDS011;13185;50.872;5.306;2023-07-08T07:10:08;10.35;;;5.82;;
25237;SDS011;13185;50.872;5.306;2023-07-08T07:12:37;13.23;;;6.95;;
25237;SDS011;13185;50.872;5.306;2023-07-08T07:15:03;14.07;;;7.90;;
25237;SDS011;13185;50.872;5.306;2023-07-08T07:17:30;8.73;;;7.00;;
25237;SDS011;13185;50.872;5.306;2023-07-08T07:19:56;9.48;;;6.30;;
25237;SDS011;13185;50.872;5.306;2023-07-08T07:22:22;10.20;;;7.13;;
25237;SDS011;13185;50.872;5.306;2023-07-08T07:24:48;8.55;;;5.88;;
25237;SDS011;13185;50.872;5.306;2023-07-08T07:27:13;10.40;;;6.80;;
25237;SDS011;13185;50.872;5.306;2023-07-08T07:29:43;15.40;;;7.78;;
25237;SDS011;13185;50.872;5.306;2023-07-08T07:32:11;11.48;;;7.40;;
25237;SDS011;13185;50.872;5.306;2023-07-08T07:34:38;13.15;;;7.70;;
25237;SDS011;13185;50.872;5.306;2023-07-08T07:37:05;13.90;;;7.10;;
25237;SDS011;13185;50.872;5.306;2023-07-08T07:39:31;9.82;;;6.18;;
25237;SDS011;13185;50.872;5.306;2023-07-08T07:41:57;11.95;;;6.85;;
25237;SDS011;13185;50.872;5.306;2023-07-08T07:44:22;11.25;;;7.18;;
25237;SDS011;13185;50.872;5.306;2023-07-08T07:46:49;9.52;;;6.57;;
25237;SDS011;13185;50.872;5.306;2023-07-08T07:49:16;10.25;;;7.15;;
25237;SDS011;13185;50.872;5.306;2023-07-08T07:51:42;8.23;;;6.47;;
25237;SDS011;13185;50.872;5.306;2023-07-08T07:54:07;11.93;;;6.30;;
25237;SDS011;13185;50.872;5.306;2023-07-08T07:56:33;9.18;;;6.18;;
25237;SDS011;13185;50.872;5.306;2023-07-08T07:58:58;7.38;;;6.55;;
25237;SDS011;13185;50.872;5.306;2023-07-08T08:01:24;9.15;;;6.00;;
25237;SDS011;13185;50.872;5.306;2023-07-08T08:03:49;9.27;;;5.93;;
25237;SDS011;13185;50.872;5.306;2023-07-08T08:06:18;8.05;;;6.00;;
25237;SDS011;13185;50.872;5.306;2023-07-08T08:08:44;9.00;;;6.35;;
25237;SDS011;13185;50.872;5.306;2023-07-08T08:11:10;8.30;;;5.50;;
25237;SDS011;13185;50.872;5.306;2023-07-08T08:13:36;8.30;;;6.38;;
25237;SDS011;13185;50.872;5.306;2023-07-08T08:16:02;9.27;;;5.82;;
25237;SDS011;13185;50.872;5.306;2023-07-08T08:18:29;10.18;;;6.38;;
25237;SDS011;13185;50.872;5.306;2023-07-08T08:20:54;8.30;;;5.55;;
25237;SDS011;13185;50.872;5.306;2023-07-08T08:23:20;8.82;;;6.07;;
25237;SDS011;13185;50.872;5.306;2023-07-08T08:25:46;8.45;;;6.55;;
25237;SDS011;13185;50.872;5.306;2023-07-08T08:28:11;11.70;;;6.13;;
25237;SDS011;13185;50.872;5.306;2023-07-08T08:30:37;7.07;;;5.80;;
25237;SDS011;13185;50.872;5.306;2023-07-08T08:33:03;8.88;;;5.97;;
25237;SDS011;13185;50.872;5.306;2023-07-08T08:35:28;8.82;;;6.10;;
25237;SDS011;13185;50.872;5.306;2023-07-08T08:37:53;8.82;;;5.65;;
25237;SDS011;13185;50.872;5.306;2023-07-08T08:40:19;8.25;;;6.15;;
25237;SDS011;13185;50.872;5.306;2023-07-08T08:42:46;7.82;;;6.22;;
25237;SDS011;13185;50.872;5.306;2023-07-08T08:45:18;6.97;;;5.68;;
25237;SDS011;13185;50.872;5.306;2023-07-08T08:47:47;7.43;;;6.15;;
25237;SDS011;13185;50.872;5.306;2023-07-08T08:50:27;11.30;;;6.00;;
